VLG2QG GCLP-LEBB
Flight info
| Callsign | VLG2QG |
|---|---|
| Flight time | 2h 32m |
| Altitude | 34000 |
| Route | VASTO UN858 SULAM/N0446F360 UN858 AKUDA DCT OBOLO DCT PESAS N858 DGO |
| Aircraft | A320/M-SDE3FGHIRWY/LB1 |
Departure
| Time | 2026-05-05 15:54 |
|---|---|
| Airport | Gran Canaria Airport (GCLP) |
Arrival
| Time | 2026-05-05 18:26 |
|---|---|
| Airport | Bilbao Airport (LEBB) |
| Time | Latitude | Longitude | Altitude | Speed | Heading |
|---|---|---|---|---|---|
| 2026-05-05 15:19 | 27.93646 | -15.38911 | 90 ft | 0 kts | 291° |
| 2026-05-05 15:42 | 27.93641 | -15.38898 | 89 ft | 3 kts | 291° |
| 2026-05-05 15:42 | 27.93632 | -15.38872 | 87 ft | 3 kts | 291° |
| 2026-05-05 15:43 | 27.93625 | -15.38851 | 87 ft | 3 kts | 274° |
| 2026-05-05 15:43 | 27.93630 | -15.38828 | 88 ft | 3 kts | 227° |
| 2026-05-05 15:43 | 27.93649 | -15.38812 | 89 ft | 3 kts | 203° |
| 2026-05-05 15:43 | 27.93653 | -15.38810 | 87 ft | 0 kts | 201° |
| 2026-05-05 15:46 | 27.93639 | -15.38816 | 89 ft | 5 kts | 201° |
| 2026-05-05 15:47 | 27.93594 | -15.38835 | 86 ft | 9 kts | 201° |
| 2026-05-05 15:47 | 27.93518 | -15.38868 | 85 ft | 13 kts | 200° |
| 2026-05-05 15:47 | 27.93465 | -15.38876 | 84 ft | 7 kts | 166° |
| 2026-05-05 15:47 | 27.93435 | -15.38827 | 82 ft | 9 kts | 110° |
| 2026-05-05 15:48 | 27.93402 | -15.38762 | 72 ft | 10 kts | 168° |
| 2026-05-05 15:48 | 27.93332 | -15.38790 | 72 ft | 11 kts | 205° |
| 2026-05-05 15:48 | 27.93272 | -15.38818 | 71 ft | 10 kts | 198° |
| 2026-05-05 15:48 | 27.93182 | -15.38855 | 71 ft | 17 kts | 203° |
| 2026-05-05 15:49 | 27.93063 | -15.38920 | 77 ft | 21 kts | 203° |
| 2026-05-05 15:49 | 27.92917 | -15.38980 | 84 ft | 23 kts | 199° |
| 2026-05-05 15:49 | 27.92762 | -15.39046 | 87 ft | 24 kts | 201° |
| 2026-05-05 15:49 | 27.92619 | -15.39107 | 90 ft | 21 kts | 201° |
| 2026-05-05 15:50 | 27.92481 | -15.39169 | 94 ft | 22 kts | 200° |
| 2026-05-05 15:50 | 27.92352 | -15.39226 | 98 ft | 16 kts | 205° |
| 2026-05-05 15:50 | 27.92262 | -15.39270 | 99 ft | 13 kts | 202° |
| 2026-05-05 15:50 | 27.92180 | -15.39304 | 99 ft | 13 kts | 196° |
| 2026-05-05 15:51 | 27.92087 | -15.39306 | 94 ft | 14 kts | 178° |
| 2026-05-05 15:51 | 27.92020 | -15.39303 | 93 ft | 0 kts | 177° |
| 2026-05-05 15:51 | 27.92019 | -15.39303 | 93 ft | 0 kts | 177° |
| 2026-05-05 15:52 | 27.92018 | -15.39303 | 93 ft | 0 kts | 177° |
| 2026-05-05 15:52 | 27.92003 | -15.39302 | 92 ft | 5 kts | 177° |
| 2026-05-05 15:52 | 27.91952 | -15.39293 | 90 ft | 10 kts | 165° |
| 2026-05-05 15:52 | 27.91912 | -15.39233 | 88 ft | 12 kts | 65° |
| 2026-05-05 15:53 | 27.91961 | -15.39202 | 87 ft | 0 kts | 20° |
| 2026-05-05 15:53 | 27.92092 | -15.39142 | 85 ft | 55 kts | 22° |
| 2026-05-05 15:54 | 27.92657 | -15.38892 | 68 ft | 117 kts | 21° |
| 2026-05-05 15:54 | 27.93572 | -15.38475 | 67 ft | 163 kts | 18° |
| 2026-05-05 15:54 | 27.94629 | -15.37993 | 686 ft | 161 kts | 24° |
| 2026-05-05 15:54 | 27.95651 | -15.37530 | 1418 ft | 155 kts | 20° |
| 2026-05-05 15:55 | 27.96640 | -15.37091 | 1975 ft | 157 kts | 20° |
| 2026-05-05 15:55 | 27.97719 | -15.36630 | 2295 ft | 173 kts | 19° |
| 2026-05-05 15:55 | 27.98890 | -15.36140 | 2703 ft | 185 kts | 19° |
| 2026-05-05 15:55 | 28.00143 | -15.35621 | 3054 ft | 200 kts | 19° |
| 2026-05-05 15:56 | 28.01538 | -15.35068 | 3266 ft | 226 kts | 18° |
| 2026-05-05 15:56 | 28.03116 | -15.34453 | 3546 ft | 253 kts | 19° |
| 2026-05-05 15:56 | 28.04823 | -15.33735 | 3999 ft | 263 kts | 20° |
| 2026-05-05 15:56 | 28.06528 | -15.32973 | 4094 ft | 264 kts | 21° |
| 2026-05-05 15:57 | 28.08229 | -15.32200 | 4082 ft | 265 kts | 21° |
| 2026-05-05 15:57 | 28.09950 | -15.31422 | 4844 ft | 266 kts | 22° |
| 2026-05-05 15:57 | 28.11591 | -15.30434 | 5591 ft | 271 kts | 30° |
| 2026-05-05 15:57 | 28.13222 | -15.29306 | 6291 ft | 277 kts | 30° |
| 2026-05-05 15:58 | 28.14881 | -15.28140 | 6938 ft | 285 kts | 30° |
| 2026-05-05 15:58 | 28.16581 | -15.26938 | 7592 ft | 291 kts | 30° |
| 2026-05-05 15:58 | 28.18310 | -15.25713 | 8269 ft | 296 kts | 30° |
| 2026-05-05 15:58 | 28.20076 | -15.24463 | 8940 ft | 302 kts | 30° |
| 2026-05-05 15:59 | 28.21880 | -15.23188 | 9564 ft | 309 kts | 30° |
| 2026-05-05 15:59 | 28.23718 | -15.21888 | 10172 ft | 316 kts | 29° |
| 2026-05-05 15:59 | 28.25649 | -15.20524 | 10350 ft | 339 kts | 28° |
| 2026-05-05 15:59 | 28.27721 | -15.19063 | 10474 ft | 362 kts | 29° |
| 2026-05-05 16:00 | 28.29898 | -15.17530 | 10877 ft | 374 kts | 29° |
| 2026-05-05 16:00 | 28.32126 | -15.15955 | 11438 ft | 380 kts | 29° |
| 2026-05-05 16:00 | 28.34382 | -15.14358 | 12028 ft | 385 kts | 28° |
| 2026-05-05 16:00 | 28.36671 | -15.12734 | 12622 ft | 390 kts | 28° |
| 2026-05-05 16:01 | 28.38985 | -15.11091 | 13201 ft | 395 kts | 28° |
| 2026-05-05 16:01 | 28.41331 | -15.09425 | 13827 ft | 399 kts | 28° |
| 2026-05-05 16:01 | 28.43698 | -15.07747 | 14361 ft | 403 kts | 28° |
| 2026-05-05 16:01 | 28.46088 | -15.06054 | 14874 ft | 407 kts | 28° |
| 2026-05-05 16:02 | 28.48503 | -15.04344 | 15409 ft | 411 kts | 28° |
| 2026-05-05 16:02 | 28.50939 | -15.02617 | 15924 ft | 415 kts | 28° |
| 2026-05-05 16:02 | 28.53398 | -15.00871 | 16446 ft | 419 kts | 27° |
| 2026-05-05 16:02 | 28.55880 | -14.99107 | 16959 ft | 422 kts | 27° |
| 2026-05-05 16:03 | 28.58382 | -14.97330 | 17466 ft | 426 kts | 27° |
| 2026-05-05 16:03 | 28.60906 | -14.95534 | 17975 ft | 430 kts | 27° |
| 2026-05-05 16:03 | 28.63457 | -14.93717 | 18462 ft | 434 kts | 27° |
| 2026-05-05 16:03 | 28.66034 | -14.91881 | 18807 ft | 440 kts | 27° |
| 2026-05-05 16:04 | 28.68644 | -14.90023 | 19200 ft | 445 kts | 27° |
| 2026-05-05 16:04 | 28.71287 | -14.88142 | 19664 ft | 449 kts | 27° |
| 2026-05-05 16:04 | 28.73933 | -14.86257 | 20233 ft | 449 kts | 27° |
| 2026-05-05 16:04 | 28.76578 | -14.84370 | 20701 ft | 452 kts | 27° |
| 2026-05-05 16:05 | 28.79255 | -14.82461 | 21133 ft | 455 kts | 27° |
| 2026-05-05 16:05 | 28.81954 | -14.80536 | 21539 ft | 460 kts | 27° |
| 2026-05-05 16:05 | 28.84677 | -14.78591 | 21934 ft | 464 kts | 27° |
| 2026-05-05 16:05 | 28.87423 | -14.76623 | 22333 ft | 468 kts | 27° |
| 2026-05-05 16:06 | 28.90186 | -14.74638 | 22718 ft | 472 kts | 27° |
| 2026-05-05 16:06 | 28.92973 | -14.72640 | 23096 ft | 475 kts | 27° |
| 2026-05-05 16:06 | 28.95786 | -14.70627 | 23463 ft | 479 kts | 27° |
| 2026-05-05 16:06 | 28.98622 | -14.68599 | 23798 ft | 482 kts | 27° |
| 2026-05-05 16:07 | 29.01473 | -14.66558 | 24110 ft | 485 kts | 27° |
| 2026-05-05 16:07 | 29.04342 | -14.64496 | 24398 ft | 489 kts | 26° |
| 2026-05-05 16:07 | 29.07233 | -14.62415 | 24682 ft | 493 kts | 27° |
| 2026-05-05 16:07 | 29.10138 | -14.60321 | 24987 ft | 495 kts | 27° |
| 2026-05-05 16:08 | 29.13057 | -14.58216 | 25298 ft | 497 kts | 27° |
| 2026-05-05 16:08 | 29.15989 | -14.56100 | 25599 ft | 499 kts | 26° |
| 2026-05-05 16:08 | 29.18927 | -14.53982 | 25915 ft | 501 kts | 26° |
| 2026-05-05 16:08 | 29.21882 | -14.51849 | 26211 ft | 503 kts | 26° |
| 2026-05-05 16:09 | 29.24848 | -14.49707 | 26515 ft | 505 kts | 26° |
| 2026-05-05 16:09 | 29.27822 | -14.47560 | 26805 ft | 507 kts | 26° |
| 2026-05-05 16:09 | 29.30807 | -14.45404 | 27088 ft | 509 kts | 26° |
| 2026-05-05 16:09 | 29.33807 | -14.43235 | 27396 ft | 510 kts | 26° |
| 2026-05-05 16:10 | 29.36807 | -14.41063 | 27671 ft | 512 kts | 26° |
| 2026-05-05 16:10 | 29.39830 | -14.38874 | 27935 ft | 514 kts | 26° |
| 2026-05-05 16:10 | 29.42861 | -14.36676 | 28188 ft | 516 kts | 26° |
| 2026-05-05 16:10 | 29.45900 | -14.34470 | 28445 ft | 518 kts | 26° |
| 2026-05-05 16:11 | 29.48951 | -14.32254 | 28694 ft | 520 kts | 27° |
| 2026-05-05 16:11 | 29.58164 | -14.25555 | 29385 ft | 525 kts | 27° |
| 2026-05-05 16:12 | 29.61262 | -14.23302 | 29595 ft | 527 kts | 27° |
| 2026-05-05 16:12 | 29.67481 | -14.18785 | 29989 ft | 531 kts | 26° |
| 2026-05-05 16:13 | 29.76873 | -14.11931 | 30630 ft | 533 kts | 26° |
| 2026-05-05 16:13 | 29.79992 | -14.09642 | 30853 ft | 533 kts | 26° |
| 2026-05-05 16:13 | 29.83114 | -14.07353 | 31084 ft | 532 kts | 26° |
| 2026-05-05 16:14 | 29.89360 | -14.02782 | 31542 ft | 532 kts | 26° |
| 2026-05-05 16:14 | 29.95606 | -13.98199 | 32000 ft | 532 kts | 26° |
| 2026-05-05 16:15 | 30.01844 | -13.93606 | 32450 ft | 532 kts | 26° |
| 2026-05-05 16:15 | 30.08078 | -13.89011 | 32906 ft | 532 kts | 26° |
| 2026-05-05 16:16 | 30.14311 | -13.84417 | 33329 ft | 531 kts | 25° |
| 2026-05-05 16:16 | 30.20500 | -13.79855 | 33769 ft | 531 kts | 25° |
| 2026-05-05 16:17 | 30.26737 | -13.75240 | 34034 ft | 522 kts | 26° |
| 2026-05-05 16:17 | 30.29774 | -13.72983 | 34073 ft | 517 kts | 26° |
| 2026-05-05 16:18 | 30.38810 | -13.66281 | 34079 ft | 513 kts | 26° |
| 2026-05-05 16:19 | 30.47784 | -13.59630 | 34078 ft | 513 kts | 26° |
| 2026-05-05 16:19 | 30.56747 | -13.52800 | 34115 ft | 514 kts | 28° |
| 2026-05-05 16:20 | 30.68466 | -13.43315 | 34095 ft | 513 kts | 28° |
| 2026-05-05 16:22 | 30.83150 | -13.31603 | 34113 ft | 512 kts | 28° |
| 2026-05-05 16:23 | 30.94861 | -13.22215 | 34101 ft | 510 kts | 28° |
| 2026-05-05 16:23 | 31.03648 | -13.15243 | 34095 ft | 509 kts | 28° |
| 2026-05-05 16:24 | 31.09488 | -13.10608 | 34089 ft | 509 kts | 28° |
| 2026-05-05 16:25 | 31.18253 | -13.03633 | 34111 ft | 507 kts | 28° |
| 2026-05-05 16:25 | 31.26028 | -12.97407 | 34101 ft | 506 kts | 28° |
| 2026-05-05 16:26 | 31.37597 | -12.88130 | 34093 ft | 505 kts | 28° |
| 2026-05-05 16:27 | 31.43431 | -12.83448 | 34111 ft | 505 kts | 28° |
| 2026-05-05 16:27 | 31.49181 | -12.78821 | 34108 ft | 504 kts | 28° |
| 2026-05-05 16:28 | 31.54957 | -12.74161 | 34108 ft | 504 kts | 28° |
| 2026-05-05 16:28 | 31.60733 | -12.69501 | 34108 ft | 503 kts | 28° |
| 2026-05-05 16:29 | 31.66503 | -12.64836 | 34218 ft | 505 kts | 28° |
| 2026-05-05 16:29 | 31.69397 | -12.62490 | 34399 ft | 506 kts | 28° |
| 2026-05-05 16:29 | 31.72289 | -12.60148 | 34600 ft | 506 kts | 28° |
| 2026-05-05 16:30 | 31.75183 | -12.57804 | 34809 ft | 505 kts | 28° |
| 2026-05-05 16:30 | 31.78074 | -12.55461 | 35020 ft | 504 kts | 28° |
| 2026-05-05 16:30 | 31.80961 | -12.53119 | 35187 ft | 504 kts | 28° |
| 2026-05-05 16:30 | 31.83848 | -12.50772 | 35358 ft | 504 kts | 28° |
| 2026-05-05 16:31 | 31.86725 | -12.48427 | 35513 ft | 504 kts | 28° |
| 2026-05-05 16:31 | 31.89606 | -12.46078 | 35667 ft | 504 kts | 28° |
| 2026-05-05 16:31 | 31.92493 | -12.43722 | 35816 ft | 504 kts | 28° |
| 2026-05-05 16:31 | 31.95372 | -12.41370 | 35967 ft | 504 kts | 28° |
| 2026-05-05 16:32 | 31.98253 | -12.39018 | 36081 ft | 504 kts | 28° |
| 2026-05-05 16:32 | 32.01137 | -12.36672 | 36108 ft | 503 kts | 28° |
| 2026-05-05 16:32 | 32.06891 | -12.32005 | 36104 ft | 501 kts | 28° |
| 2026-05-05 16:33 | 32.12625 | -12.27338 | 36103 ft | 501 kts | 28° |
| 2026-05-05 16:33 | 32.18344 | -12.22666 | 36107 ft | 501 kts | 28° |
| 2026-05-05 16:34 | 32.24071 | -12.17987 | 36105 ft | 500 kts | 29° |
| 2026-05-05 16:34 | 32.29794 | -12.13299 | 36108 ft | 501 kts | 29° |
| 2026-05-05 16:35 | 32.35515 | -12.08604 | 36136 ft | 500 kts | 30° |
| 2026-05-05 16:35 | 32.41218 | -12.03920 | 36121 ft | 499 kts | 29° |
| 2026-05-05 16:36 | 32.46915 | -11.99236 | 36121 ft | 498 kts | 29° |
| 2026-05-05 16:36 | 32.52600 | -11.94549 | 36121 ft | 498 kts | 29° |
| 2026-05-05 16:37 | 32.58279 | -11.89859 | 36116 ft | 497 kts | 29° |
| 2026-05-05 16:37 | 32.63912 | -11.85200 | 36142 ft | 497 kts | 30° |
| 2026-05-05 16:38 | 32.69577 | -11.80509 | 36136 ft | 496 kts | 30° |
| 2026-05-05 16:38 | 32.75220 | -11.75826 | 36129 ft | 495 kts | 30° |
| 2026-05-05 16:39 | 32.80865 | -11.71145 | 36122 ft | 494 kts | 30° |
| 2026-05-05 16:39 | 32.86502 | -11.66452 | 36124 ft | 494 kts | 30° |
| 2026-05-05 16:40 | 32.92131 | -11.61769 | 36112 ft | 494 kts | 30° |
| 2026-05-05 16:40 | 32.97761 | -11.57073 | 36114 ft | 494 kts | 30° |
| 2026-05-05 16:41 | 33.03389 | -11.52361 | 36103 ft | 494 kts | 30° |
| 2026-05-05 16:41 | 33.09006 | -11.47650 | 36114 ft | 494 kts | 30° |
| 2026-05-05 16:42 | 33.14629 | -11.42930 | 36120 ft | 494 kts | 30° |
| 2026-05-05 16:42 | 33.20252 | -11.38208 | 36128 ft | 494 kts | 31° |
| 2026-05-05 16:43 | 33.25861 | -11.33464 | 36123 ft | 494 kts | 31° |
| 2026-05-05 16:43 | 33.31460 | -11.28705 | 36125 ft | 494 kts | 31° |
| 2026-05-05 16:44 | 33.37062 | -11.23934 | 36125 ft | 494 kts | 31° |
| 2026-05-05 16:44 | 33.42658 | -11.19166 | 36129 ft | 494 kts | 31° |
| 2026-05-05 16:45 | 33.48255 | -11.14392 | 36144 ft | 494 kts | 31° |
| 2026-05-05 16:45 | 33.53849 | -11.09615 | 36142 ft | 494 kts | 31° |
| 2026-05-05 16:46 | 33.59441 | -11.04833 | 36136 ft | 494 kts | 31° |
| 2026-05-05 16:46 | 33.65033 | -11.00040 | 36135 ft | 494 kts | 31° |
| 2026-05-05 16:47 | 33.70610 | -10.95240 | 36132 ft | 493 kts | 31° |
| 2026-05-05 16:47 | 33.76191 | -10.90446 | 36150 ft | 493 kts | 31° |
| 2026-05-05 16:48 | 33.81770 | -10.85650 | 36137 ft | 493 kts | 31° |
| 2026-05-05 16:48 | 33.87347 | -10.80837 | 36132 ft | 494 kts | 31° |
| 2026-05-05 16:49 | 33.92927 | -10.76002 | 36132 ft | 494 kts | 31° |
| 2026-05-05 16:49 | 33.98506 | -10.71176 | 36131 ft | 494 kts | 31° |
| 2026-05-05 16:50 | 34.04085 | -10.66343 | 36150 ft | 494 kts | 31° |
| 2026-05-05 16:50 | 34.09673 | -10.61495 | 36140 ft | 494 kts | 31° |
| 2026-05-05 16:51 | 34.15251 | -10.56643 | 36134 ft | 494 kts | 30° |
| 2026-05-05 16:51 | 34.20793 | -10.51825 | 36127 ft | 494 kts | 30° |
| 2026-05-05 16:52 | 34.26374 | -10.46954 | 36120 ft | 495 kts | 31° |
| 2026-05-05 16:52 | 34.31928 | -10.42083 | 36128 ft | 493 kts | 30° |
| 2026-05-05 16:53 | 34.37503 | -10.37202 | 36112 ft | 495 kts | 30° |
| 2026-05-05 16:53 | 34.43083 | -10.32318 | 36122 ft | 495 kts | 30° |
| 2026-05-05 16:54 | 34.48667 | -10.27418 | 36120 ft | 496 kts | 30° |
| 2026-05-05 16:54 | 34.54250 | -10.22500 | 36122 ft | 496 kts | 30° |
| 2026-05-05 16:55 | 34.59825 | -10.17573 | 36140 ft | 496 kts | 30° |
| 2026-05-05 16:55 | 34.65413 | -10.12646 | 36137 ft | 496 kts | 30° |
| 2026-05-05 16:56 | 34.71003 | -10.07737 | 36135 ft | 496 kts | 30° |
| 2026-05-05 16:56 | 34.76577 | -10.02848 | 36127 ft | 493 kts | 30° |
| 2026-05-05 16:57 | 34.82152 | -9.97942 | 36120 ft | 495 kts | 30° |
| 2026-05-05 16:57 | 34.87708 | -9.93014 | 36112 ft | 493 kts | 30° |
| 2026-05-05 16:58 | 34.93245 | -9.88104 | 36121 ft | 492 kts | 30° |
| 2026-05-05 16:58 | 34.98778 | -9.83204 | 36113 ft | 492 kts | 30° |
| 2026-05-05 16:59 | 35.04276 | -9.78330 | 36119 ft | 492 kts | 30° |
| 2026-05-05 16:59 | 35.09844 | -9.73374 | 36111 ft | 492 kts | 30° |
| 2026-05-05 17:00 | 35.15339 | -9.68480 | 36125 ft | 491 kts | 30° |
| 2026-05-05 17:00 | 35.20855 | -9.63558 | 36126 ft | 491 kts | 30° |
| 2026-05-05 17:01 | 35.26366 | -9.58628 | 36136 ft | 491 kts | 30° |
| 2026-05-05 17:01 | 35.31873 | -9.53692 | 36132 ft | 491 kts | 30° |
| 2026-05-05 17:02 | 35.37376 | -9.48753 | 36125 ft | 490 kts | 30° |
| 2026-05-05 17:02 | 35.42878 | -9.43805 | 36154 ft | 490 kts | 30° |
| 2026-05-05 17:03 | 35.48379 | -9.38858 | 36148 ft | 490 kts | 29° |
| 2026-05-05 17:03 | 35.53887 | -9.33903 | 36138 ft | 491 kts | 30° |
| 2026-05-05 17:04 | 35.59388 | -9.28931 | 36133 ft | 491 kts | 30° |
| 2026-05-05 17:04 | 35.64879 | -9.23962 | 36130 ft | 491 kts | 30° |
| 2026-05-05 17:05 | 35.70377 | -9.18982 | 36138 ft | 491 kts | 30° |
| 2026-05-05 17:05 | 35.75873 | -9.13986 | 36133 ft | 491 kts | 30° |
| 2026-05-05 17:06 | 35.81356 | -9.08978 | 36133 ft | 491 kts | 30° |
| 2026-05-05 17:06 | 35.86845 | -9.03973 | 36130 ft | 491 kts | 30° |
| 2026-05-05 17:07 | 35.92345 | -8.98956 | 36152 ft | 491 kts | 30° |
| 2026-05-05 17:07 | 35.97550 | -8.93497 | 36116 ft | 499 kts | 44° |
| 2026-05-05 17:08 | 36.02083 | -8.87080 | 36115 ft | 499 kts | 44° |
| 2026-05-05 17:08 | 36.06627 | -8.80597 | 36115 ft | 499 kts | 44° |
| 2026-05-05 17:09 | 36.11160 | -8.74079 | 36113 ft | 499 kts | 44° |
| 2026-05-05 17:09 | 36.15687 | -8.67564 | 36110 ft | 499 kts | 44° |
| 2026-05-05 17:10 | 36.20215 | -8.61048 | 36136 ft | 499 kts | 45° |
| 2026-05-05 17:10 | 36.24719 | -8.54525 | 36119 ft | 498 kts | 45° |
| 2026-05-05 17:11 | 36.29218 | -8.48000 | 36117 ft | 497 kts | 45° |
| 2026-05-05 17:11 | 36.33705 | -8.41484 | 36106 ft | 497 kts | 45° |
| 2026-05-05 17:12 | 36.37464 | -8.36028 | 36106 ft | 496 kts | 45° |
| 2026-05-05 17:12 | 36.41918 | -8.29554 | 36097 ft | 496 kts | 45° |
| 2026-05-05 17:13 | 36.46388 | -8.23028 | 36121 ft | 496 kts | 45° |
| 2026-05-05 17:13 | 36.50862 | -8.16486 | 36102 ft | 496 kts | 45° |
| 2026-05-05 17:14 | 36.55333 | -8.09951 | 36094 ft | 496 kts | 45° |
| 2026-05-05 17:14 | 36.59797 | -8.03399 | 36076 ft | 496 kts | 45° |
| 2026-05-05 17:15 | 36.64253 | -7.96836 | 36074 ft | 496 kts | 45° |
| 2026-05-05 17:15 | 36.68705 | -7.90288 | 36060 ft | 496 kts | 45° |
| 2026-05-05 17:16 | 36.73155 | -7.83725 | 36049 ft | 496 kts | 45° |
| 2026-05-05 17:16 | 36.77591 | -7.77162 | 36060 ft | 495 kts | 45° |
| 2026-05-05 17:17 | 36.82033 | -7.70584 | 36049 ft | 495 kts | 45° |
| 2026-05-05 17:17 | 36.86465 | -7.64013 | 36046 ft | 495 kts | 45° |
| 2026-05-05 17:18 | 36.90896 | -7.57423 | 36052 ft | 493 kts | 47° |
| 2026-05-05 17:18 | 36.95247 | -7.50925 | 36010 ft | 485 kts | 47° |
| 2026-05-05 17:19 | 36.99582 | -7.44451 | 36013 ft | 486 kts | 47° |
| 2026-05-05 17:19 | 37.03919 | -7.37962 | 36020 ft | 486 kts | 47° |
| 2026-05-05 17:20 | 37.08262 | -7.31491 | 36021 ft | 485 kts | 47° |
| 2026-05-05 17:20 | 37.12620 | -7.25030 | 36013 ft | 485 kts | 47° |
| 2026-05-05 17:21 | 37.16953 | -7.18586 | 36012 ft | 486 kts | 47° |
| 2026-05-05 17:22 | 37.23486 | -7.08831 | 35992 ft | 487 kts | 47° |
| 2026-05-05 17:22 | 37.27830 | -7.02316 | 36016 ft | 487 kts | 47° |
| 2026-05-05 17:23 | 37.32176 | -6.95789 | 36015 ft | 487 kts | 47° |
| 2026-05-05 17:23 | 37.36516 | -6.89260 | 36012 ft | 487 kts | 47° |
| 2026-05-05 17:24 | 37.40855 | -6.82728 | 36018 ft | 487 kts | 47° |
| 2026-05-05 17:24 | 37.45188 | -6.76186 | 36003 ft | 487 kts | 47° |
| 2026-05-05 17:25 | 37.49491 | -6.69678 | 36001 ft | 487 kts | 47° |
| 2026-05-05 17:25 | 37.53826 | -6.63107 | 36019 ft | 487 kts | 47° |
| 2026-05-05 17:26 | 37.58177 | -6.56478 | 36006 ft | 487 kts | 47° |
| 2026-05-05 17:26 | 37.62470 | -6.49934 | 35997 ft | 487 kts | 47° |
| 2026-05-05 17:27 | 37.66795 | -6.43348 | 35995 ft | 488 kts | 47° |
| 2026-05-05 17:27 | 37.71122 | -6.36739 | 35989 ft | 488 kts | 47° |
| 2026-05-05 17:28 | 37.75447 | -6.30120 | 35989 ft | 489 kts | 47° |
| 2026-05-05 17:28 | 37.79777 | -6.23480 | 36014 ft | 490 kts | 47° |
| 2026-05-05 17:29 | 37.84106 | -6.16819 | 35998 ft | 490 kts | 47° |
| 2026-05-05 17:29 | 37.88291 | -6.10732 | 36033 ft | 474 kts | 45° |
| 2026-05-05 17:29 | 37.90405 | -6.07592 | 35984 ft | 462 kts | 46° |
| 2026-05-05 17:30 | 37.92399 | -6.04476 | 35995 ft | 449 kts | 47° |
| 2026-05-05 17:30 | 37.94393 | -6.01518 | 35990 ft | 434 kts | 41° |
| 2026-05-05 17:30 | 37.96551 | -5.98955 | 35990 ft | 417 kts | 32° |
| 2026-05-05 17:30 | 37.98863 | -5.96880 | 35990 ft | 400 kts | 25° |
| 2026-05-05 17:31 | 38.01245 | -5.95005 | 35342 ft | 408 kts | 25° |
| 2026-05-05 17:31 | 38.03709 | -5.93102 | 34545 ft | 421 kts | 25° |
| 2026-05-05 17:31 | 38.06219 | -5.91153 | 34076 ft | 425 kts | 25° |
| 2026-05-05 17:31 | 38.08735 | -5.89173 | 33675 ft | 425 kts | 25° |
| 2026-05-05 17:32 | 38.11226 | -5.87181 | 33330 ft | 423 kts | 25° |
| 2026-05-05 17:32 | 38.13704 | -5.85182 | 33025 ft | 420 kts | 25° |
| 2026-05-05 17:32 | 38.16167 | -5.83190 | 32711 ft | 418 kts | 25° |
| 2026-05-05 17:32 | 38.18583 | -5.81232 | 32426 ft | 416 kts | 25° |
| 2026-05-05 17:33 | 38.21015 | -5.79257 | 32149 ft | 414 kts | 25° |
| 2026-05-05 17:33 | 38.23436 | -5.77293 | 31884 ft | 412 kts | 25° |
| 2026-05-05 17:33 | 38.25847 | -5.75341 | 31628 ft | 410 kts | 25° |
| 2026-05-05 17:33 | 38.28246 | -5.73406 | 31320 ft | 410 kts | 25° |
| 2026-05-05 17:34 | 38.30673 | -5.71443 | 31025 ft | 416 kts | 25° |
| 2026-05-05 17:34 | 38.33129 | -5.69449 | 30743 ft | 422 kts | 25° |
| 2026-05-05 17:34 | 38.35622 | -5.67425 | 30467 ft | 427 kts | 25° |
| 2026-05-05 17:34 | 38.38147 | -5.65376 | 30195 ft | 432 kts | 25° |
| 2026-05-05 17:35 | 38.40698 | -5.63306 | 29916 ft | 437 kts | 25° |
| 2026-05-05 17:35 | 38.43274 | -5.61217 | 29608 ft | 440 kts | 25° |
| 2026-05-05 17:35 | 38.45853 | -5.59127 | 29398 ft | 437 kts | 25° |
| 2026-05-05 17:35 | 38.48385 | -5.57082 | 29250 ft | 425 kts | 25° |
| 2026-05-05 17:36 | 38.50893 | -5.55059 | 28619 ft | 435 kts | 26° |
| 2026-05-05 17:36 | 38.53463 | -5.52945 | 28776 ft | 443 kts | 26° |
| 2026-05-05 17:36 | 38.56064 | -5.50779 | 28915 ft | 451 kts | 27° |
| 2026-05-05 17:36 | 38.58716 | -5.48563 | 29056 ft | 458 kts | 27° |
| 2026-05-05 17:37 | 38.61408 | -5.46328 | 29196 ft | 465 kts | 26° |
| 2026-05-05 17:37 | 38.66931 | -5.41845 | 29478 ft | 476 kts | 26° |
| 2026-05-05 17:37 | 38.69748 | -5.39584 | 29620 ft | 481 kts | 26° |
| 2026-05-05 17:38 | 38.72599 | -5.37296 | 29759 ft | 485 kts | 26° |
| 2026-05-05 17:38 | 38.75471 | -5.34985 | 29903 ft | 490 kts | 26° |
| 2026-05-05 17:38 | 38.78356 | -5.32648 | 30152 ft | 491 kts | 26° |
| 2026-05-05 17:38 | 38.81242 | -5.30297 | 30426 ft | 491 kts | 26° |
| 2026-05-05 17:39 | 38.84118 | -5.27949 | 30705 ft | 491 kts | 26° |
| 2026-05-05 17:39 | 38.86995 | -5.25599 | 30969 ft | 490 kts | 26° |
| 2026-05-05 17:39 | 38.89873 | -5.23248 | 31224 ft | 490 kts | 26° |
| 2026-05-05 17:39 | 38.92749 | -5.20899 | 31492 ft | 490 kts | 26° |
| 2026-05-05 17:40 | 38.95624 | -5.18553 | 31769 ft | 489 kts | 26° |
| 2026-05-05 17:40 | 38.98492 | -5.16215 | 32033 ft | 489 kts | 26° |
| 2026-05-05 17:40 | 39.01364 | -5.13872 | 32337 ft | 489 kts | 26° |
| 2026-05-05 17:40 | 39.04191 | -5.11551 | 32640 ft | 487 kts | 26° |
| 2026-05-05 17:41 | 39.07039 | -5.09204 | 32939 ft | 487 kts | 26° |
| 2026-05-05 17:41 | 39.09891 | -5.06850 | 33204 ft | 486 kts | 26° |
| 2026-05-05 17:41 | 39.12768 | -5.04472 | 33464 ft | 482 kts | 27° |
| 2026-05-05 17:41 | 39.15554 | -5.02163 | 33695 ft | 484 kts | 26° |
| 2026-05-05 17:42 | 39.18388 | -4.99815 | 33884 ft | 485 kts | 26° |
| 2026-05-05 17:42 | 39.21226 | -4.97461 | 34108 ft | 486 kts | 26° |
| 2026-05-05 17:42 | 39.24069 | -4.95100 | 34316 ft | 486 kts | 26° |
| 2026-05-05 17:42 | 39.26906 | -4.92742 | 34569 ft | 485 kts | 26° |
| 2026-05-05 17:43 | 39.29738 | -4.90378 | 34838 ft | 483 kts | 26° |
| 2026-05-05 17:43 | 39.32556 | -4.88021 | 35074 ft | 482 kts | 26° |
| 2026-05-05 17:43 | 39.35370 | -4.85666 | 35287 ft | 482 kts | 26° |
| 2026-05-05 17:43 | 39.38185 | -4.83309 | 35485 ft | 482 kts | 26° |
| 2026-05-05 17:44 | 39.40999 | -4.80955 | 35698 ft | 481 kts | 26° |
| 2026-05-05 17:44 | 39.43806 | -4.78611 | 35881 ft | 481 kts | 26° |
| 2026-05-05 17:44 | 39.46617 | -4.76264 | 35957 ft | 481 kts | 26° |
| 2026-05-05 17:45 | 39.52219 | -4.71571 | 35956 ft | 479 kts | 27° |
| 2026-05-05 17:45 | 39.57807 | -4.66871 | 35957 ft | 479 kts | 27° |
| 2026-05-05 17:46 | 39.63377 | -4.62185 | 35957 ft | 479 kts | 27° |
| 2026-05-05 17:46 | 39.68968 | -4.57470 | 35961 ft | 479 kts | 27° |
| 2026-05-05 17:47 | 39.74563 | -4.52742 | 35967 ft | 480 kts | 27° |
| 2026-05-05 17:47 | 39.80132 | -4.48030 | 35966 ft | 480 kts | 27° |
| 2026-05-05 17:48 | 39.85721 | -4.43284 | 35957 ft | 480 kts | 27° |
| 2026-05-05 17:48 | 39.91316 | -4.38531 | 35954 ft | 480 kts | 27° |
| 2026-05-05 17:49 | 39.96927 | -4.33840 | 35988 ft | 476 kts | 22° |
| 2026-05-05 17:49 | 40.02858 | -4.30164 | 35976 ft | 471 kts | 18° |
| 2026-05-05 17:50 | 40.08766 | -4.26560 | 35968 ft | 471 kts | 18° |
| 2026-05-05 17:50 | 40.14703 | -4.22917 | 35961 ft | 471 kts | 18° |
| 2026-05-05 17:51 | 40.20635 | -4.19283 | 35981 ft | 471 kts | 18° |
| 2026-05-05 17:51 | 40.26566 | -4.15648 | 35975 ft | 471 kts | 18° |
| 2026-05-05 17:52 | 40.32491 | -4.12008 | 35973 ft | 470 kts | 18° |
| 2026-05-05 17:52 | 40.38411 | -4.08363 | 35967 ft | 470 kts | 18° |
| 2026-05-05 17:53 | 40.44333 | -4.04718 | 35976 ft | 468 kts | 18° |
| 2026-05-05 17:53 | 40.50227 | -4.01079 | 35978 ft | 468 kts | 18° |
| 2026-05-05 17:54 | 40.56112 | -3.97431 | 35981 ft | 467 kts | 18° |
| 2026-05-05 17:54 | 40.61988 | -3.93784 | 35984 ft | 467 kts | 18° |
| 2026-05-05 17:55 | 40.67869 | -3.90128 | 35983 ft | 467 kts | 18° |
| 2026-05-05 17:55 | 40.73736 | -3.86473 | 36040 ft | 466 kts | 19° |
| 2026-05-05 17:56 | 40.79603 | -3.82816 | 35976 ft | 467 kts | 18° |
| 2026-05-05 17:56 | 40.85481 | -3.79155 | 35990 ft | 468 kts | 18° |
| 2026-05-05 17:57 | 40.91361 | -3.75468 | 35971 ft | 468 kts | 18° |
| 2026-05-05 17:57 | 40.97208 | -3.71783 | 35986 ft | 468 kts | 18° |
| 2026-05-05 17:58 | 41.03090 | -3.68076 | 35988 ft | 468 kts | 18° |
| 2026-05-05 17:58 | 41.08977 | -3.64371 | 36029 ft | 469 kts | 19° |
| 2026-05-05 17:59 | 41.14865 | -3.60659 | 36027 ft | 468 kts | 18° |
| 2026-05-05 17:59 | 41.20810 | -3.57203 | 36040 ft | 466 kts | 15° |
| 2026-05-05 18:00 | 41.26862 | -3.54012 | 36041 ft | 468 kts | 14° |
| 2026-05-05 18:00 | 41.31931 | -3.51335 | 36036 ft | 467 kts | 15° |
| 2026-05-05 18:01 | 41.37900 | -3.48086 | 36025 ft | 466 kts | 16° |
| 2026-05-05 18:01 | 41.43885 | -3.44780 | 36023 ft | 466 kts | 16° |
| 2026-05-05 18:02 | 41.49884 | -3.41467 | 36019 ft | 466 kts | 16° |
| 2026-05-05 18:02 | 41.55881 | -3.38162 | 36036 ft | 467 kts | 17° |
| 2026-05-05 18:03 | 41.61894 | -3.34847 | 36018 ft | 467 kts | 17° |
| 2026-05-05 18:03 | 41.67905 | -3.31530 | 36013 ft | 468 kts | 17° |
| 2026-05-05 18:04 | 41.73914 | -3.28198 | 36029 ft | 468 kts | 17° |
| 2026-05-05 18:04 | 41.79927 | -3.24850 | 35764 ft | 468 kts | 17° |
| 2026-05-05 18:04 | 41.82936 | -3.23173 | 35532 ft | 468 kts | 17° |
| 2026-05-05 18:05 | 41.85938 | -3.21500 | 35284 ft | 468 kts | 17° |
| 2026-05-05 18:05 | 41.88936 | -3.19830 | 35050 ft | 468 kts | 17° |
| 2026-05-05 18:05 | 41.91946 | -3.18154 | 34810 ft | 468 kts | 17° |
| 2026-05-05 18:05 | 41.94918 | -3.16498 | 34609 ft | 468 kts | 17° |
| 2026-05-05 18:06 | 41.97930 | -3.14817 | 34378 ft | 469 kts | 18° |
| 2026-05-05 18:06 | 41.99960 | -3.13679 | 34227 ft | 469 kts | 18° |
| 2026-05-05 18:06 | 42.04014 | -3.11405 | 33029 ft | 476 kts | 17° |
| 2026-05-05 18:06 | 42.07007 | -3.09722 | 32560 ft | 469 kts | 17° |
| 2026-05-05 18:07 | 42.10002 | -3.08031 | 31952 ft | 466 kts | 17° |
| 2026-05-05 18:07 | 42.12970 | -3.06357 | 31353 ft | 462 kts | 17° |
| 2026-05-05 18:07 | 42.15930 | -3.04687 | 30771 ft | 459 kts | 17° |
| 2026-05-05 18:07 | 42.18874 | -3.03027 | 30161 ft | 457 kts | 18° |
| 2026-05-05 18:08 | 42.21796 | -3.01383 | 29516 ft | 453 kts | 18° |
| 2026-05-05 18:08 | 42.24687 | -2.99756 | 28949 ft | 447 kts | 18° |
| 2026-05-05 18:08 | 42.27539 | -2.98150 | 28374 ft | 443 kts | 18° |
| 2026-05-05 18:08 | 42.30368 | -2.96553 | 27818 ft | 438 kts | 18° |
| 2026-05-05 18:09 | 42.33163 | -2.94973 | 27263 ft | 433 kts | 19° |
| 2026-05-05 18:09 | 42.35932 | -2.93403 | 26740 ft | 429 kts | 19° |
| 2026-05-05 18:09 | 42.38669 | -2.91844 | 26201 ft | 426 kts | 19° |
| 2026-05-05 18:09 | 42.41384 | -2.90296 | 25714 ft | 421 kts | 19° |
| 2026-05-05 18:10 | 42.44057 | -2.88701 | 25197 ft | 419 kts | 25° |
| 2026-05-05 18:10 | 42.46509 | -2.86591 | 24717 ft | 418 kts | 36° |
| 2026-05-05 18:10 | 42.48707 | -2.84026 | 24220 ft | 416 kts | 39° |
| 2026-05-05 18:10 | 42.50868 | -2.81427 | 23726 ft | 413 kts | 40° |
| 2026-05-05 18:11 | 42.53008 | -2.78851 | 23184 ft | 411 kts | 40° |
| 2026-05-05 18:11 | 42.55104 | -2.76323 | 22699 ft | 406 kts | 40° |
| 2026-05-05 18:11 | 42.57207 | -2.73787 | 22211 ft | 403 kts | 40° |
| 2026-05-05 18:11 | 42.59290 | -2.71275 | 21718 ft | 400 kts | 39° |
| 2026-05-05 18:12 | 42.61348 | -2.68788 | 21226 ft | 397 kts | 40° |
| 2026-05-05 18:12 | 42.63405 | -2.66291 | 20731 ft | 395 kts | 39° |
| 2026-05-05 18:12 | 42.65450 | -2.63807 | 20227 ft | 393 kts | 39° |
| 2026-05-05 18:12 | 42.67487 | -2.61333 | 19721 ft | 392 kts | 39° |
| 2026-05-05 18:13 | 42.69512 | -2.58882 | 19218 ft | 390 kts | 39° |
| 2026-05-05 18:13 | 42.71541 | -2.56425 | 18711 ft | 389 kts | 39° |
| 2026-05-05 18:13 | 42.73560 | -2.53978 | 18196 ft | 388 kts | 39° |
| 2026-05-05 18:13 | 42.75567 | -2.51537 | 17667 ft | 386 kts | 39° |
| 2026-05-05 18:14 | 42.77557 | -2.49113 | 17181 ft | 383 kts | 39° |
| 2026-05-05 18:14 | 42.79539 | -2.46699 | 16696 ft | 380 kts | 39° |
| 2026-05-05 18:14 | 42.81500 | -2.44307 | 16200 ft | 377 kts | 39° |
| 2026-05-05 18:14 | 42.83450 | -2.41930 | 15736 ft | 375 kts | 39° |
| 2026-05-05 18:15 | 42.85386 | -2.39566 | 15264 ft | 373 kts | 40° |
| 2026-05-05 18:15 | 42.87259 | -2.37274 | 14833 ft | 370 kts | 41° |
| 2026-05-05 18:15 | 42.89121 | -2.34992 | 14379 ft | 367 kts | 40° |
| 2026-05-05 18:15 | 42.91010 | -2.32677 | 13905 ft | 360 kts | 40° |
| 2026-05-05 18:16 | 42.92834 | -2.30434 | 13390 ft | 347 kts | 40° |
| 2026-05-05 18:16 | 42.94619 | -2.28339 | 12943 ft | 330 kts | 31° |
| 2026-05-05 18:16 | 42.96639 | -2.27095 | 12526 ft | 310 kts | 9° |
| 2026-05-05 18:16 | 42.98729 | -2.26931 | 12133 ft | 299 kts | 349° |
| 2026-05-05 18:17 | 43.00694 | -2.27753 | 11688 ft | 294 kts | 329° |
| 2026-05-05 18:17 | 43.02302 | -2.29412 | 11332 ft | 289 kts | 311° |
| 2026-05-05 18:17 | 43.03664 | -2.31426 | 10935 ft | 289 kts | 310° |
| 2026-05-05 18:17 | 43.05025 | -2.33450 | 10533 ft | 289 kts | 310° |
| 2026-05-05 18:18 | 43.06382 | -2.35467 | 10171 ft | 287 kts | 310° |
| 2026-05-05 18:18 | 43.07703 | -2.37425 | 9946 ft | 282 kts | 311° |
| 2026-05-05 18:18 | 43.09034 | -2.39397 | 9802 ft | 282 kts | 311° |
| 2026-05-05 18:18 | 43.10365 | -2.41372 | 9487 ft | 285 kts | 311° |
| 2026-05-05 18:19 | 43.11717 | -2.43376 | 9117 ft | 282 kts | 311° |
| 2026-05-05 18:19 | 43.13041 | -2.45340 | 8730 ft | 280 kts | 311° |
| 2026-05-05 18:19 | 43.14351 | -2.47293 | 8150 ft | 277 kts | 310° |
| 2026-05-05 18:19 | 43.15321 | -2.49524 | 7412 ft | 274 kts | 284° |
| 2026-05-05 18:20 | 43.15661 | -2.52080 | 6789 ft | 269 kts | 286° |
| 2026-05-05 18:20 | 43.16427 | -2.54312 | 6575 ft | 254 kts | 301° |
| 2026-05-05 18:20 | 43.17294 | -2.56385 | 6295 ft | 249 kts | 300° |
| 2026-05-05 18:20 | 43.18090 | -2.58473 | 5927 ft | 248 kts | 298° |
| 2026-05-05 18:21 | 43.18862 | -2.60563 | 5525 ft | 240 kts | 299° |
| 2026-05-05 18:21 | 43.19597 | -2.62552 | 5188 ft | 230 kts | 300° |
| 2026-05-05 18:21 | 43.20320 | -2.64502 | 4842 ft | 231 kts | 299° |
| 2026-05-05 18:21 | 43.21050 | -2.66474 | 4474 ft | 233 kts | 298° |
| 2026-05-05 18:22 | 43.21784 | -2.68457 | 4114 ft | 232 kts | 298° |
| 2026-05-05 18:22 | 43.22515 | -2.70435 | 3755 ft | 232 kts | 298° |
| 2026-05-05 18:22 | 43.23230 | -2.72369 | 3410 ft | 226 kts | 298° |
| 2026-05-05 18:22 | 43.23915 | -2.74227 | 3072 ft | 210 kts | 298° |
| 2026-05-05 18:23 | 43.24550 | -2.75947 | 2776 ft | 196 kts | 298° |
| 2026-05-05 18:23 | 43.25139 | -2.77546 | 2499 ft | 182 kts | 298° |
| 2026-05-05 18:23 | 43.25694 | -2.79052 | 2198 ft | 170 kts | 298° |
| 2026-05-05 18:23 | 43.26204 | -2.80437 | 1963 ft | 155 kts | 298° |
| 2026-05-05 18:24 | 43.26675 | -2.81714 | 1714 ft | 146 kts | 297° |
| 2026-05-05 18:24 | 43.27125 | -2.82935 | 1477 ft | 142 kts | 297° |
| 2026-05-05 18:24 | 43.27564 | -2.84130 | 1267 ft | 139 kts | 296° |
| 2026-05-05 18:24 | 43.27999 | -2.85312 | 1058 ft | 137 kts | 296° |
| 2026-05-05 18:25 | 43.28428 | -2.86480 | 844 ft | 137 kts | 296° |
| 2026-05-05 18:25 | 43.28717 | -2.87269 | 679 ft | 138 kts | 295° |
| 2026-05-05 18:25 | 43.29300 | -2.88827 | 409 ft | 139 kts | 296° |
| 2026-05-05 18:25 | 43.29733 | -2.90007 | 205 ft | 137 kts | 294° |
| 2026-05-05 18:26 | 43.30131 | -2.91117 | 127 ft | 118 kts | 294° |
| 2026-05-05 18:26 | 43.30396 | -2.91834 | 126 ft | 56 kts | 296° |
| 2026-05-05 18:26 | 43.30540 | -2.92238 | 123 ft | 32 kts | 296° |
| 2026-05-05 18:26 | 43.30622 | -2.92428 | 127 ft | 19 kts | 319° |
| 2026-05-05 18:27 | 43.30742 | -2.92503 | 126 ft | 15 kts | 341° |
| 2026-05-05 18:27 | 43.30801 | -2.92444 | 127 ft | 12 kts | 96° |
| 2026-05-05 18:27 | 43.30770 | -2.92347 | 128 ft | 10 kts | 117° |
| 2026-05-05 18:27 | 43.30740 | -2.92269 | 126 ft | 9 kts | 117° |
| 2026-05-05 18:28 | 43.30655 | -2.92041 | 128 ft | 20 kts | 116° |
| 2026-05-05 18:28 | 43.30587 | -2.91846 | 125 ft | 24 kts | 116° |
| 2026-05-05 18:28 | 43.30512 | -2.91643 | 125 ft | 24 kts | 117° |
| 2026-05-05 18:29 | 43.30435 | -2.91437 | 127 ft | 24 kts | 117° |
| 2026-05-05 18:29 | 43.30364 | -2.91245 | 127 ft | 11 kts | 116° |
| 2026-05-05 18:29 | 43.30336 | -2.91166 | 126 ft | 8 kts | 116° |
| 2026-05-05 18:29 | 43.30316 | -2.91109 | 124 ft | 5 kts | 114° |
| 2026-05-05 18:30 | 43.30308 | -2.91051 | 124 ft | 8 kts | 83° |
| 2026-05-05 18:30 | 43.30354 | -2.91002 | 127 ft | 10 kts | 23° |
| 2026-05-05 18:30 | 43.30405 | -2.90946 | 127 ft | 7 kts | 69° |
| 2026-05-05 18:30 | 43.30406 | -2.90935 | 126 ft | 1 kts | 84° |
| 2026-05-05 18:31 | 43.30406 | -2.90934 | 126 ft | 0 kts | 85° |
| 2026-05-05 18:34 | 43.30406 | -2.90931 | 126 ft | 2 kts | 85° |
| 2026-05-05 18:34 | 43.30407 | -2.90906 | 127 ft | 0 kts | 86° |
| 2026-05-05 18:34 | 43.30408 | -2.90897 | 127 ft | 3 kts | 87° |
| 2026-05-05 18:35 | 43.30409 | -2.90845 | 127 ft | 5 kts | 89° |
| 2026-05-05 18:35 | 43.30409 | -2.90822 | 127 ft | 1 kts | 91° |
| 2026-05-05 18:35 | 43.30407 | -2.90793 | 127 ft | 6 kts | 89° |
| 2026-05-05 18:35 | 43.30447 | -2.90750 | 126 ft | 8 kts | 26° |
| 2026-05-05 18:36 | 43.30458 | -2.90743 | 126 ft | 0 kts | 26° |
| 2026-05-05 18:36 | 43.30459 | -2.90742 | 127 ft | 1 kts | 27° |
| 2026-05-05 18:36 | 43.30462 | -2.90740 | 127 ft | 0 kts | 26° |